sensor_id;sensor_type;location;lat;lon;timestamp;P1;durP1;ratioP1;P2;durP2;ratioP2
13797;SDS011;6970;51.340;3.240;2023-03-24T00:00:24;3.93;;;2.40;;
13797;SDS011;6970;51.340;3.240;2023-03-24T00:02:51;5.00;;;2.90;;
13797;SDS011;6970;51.340;3.240;2023-03-24T00:05:20;5.17;;;2.97;;
13797;SDS011;6970;51.340;3.240;2023-03-24T00:07:48;4.47;;;2.57;;
13797;SDS011;6970;51.340;3.240;2023-03-24T00:10:20;2.93;;;2.20;;
13797;SDS011;6970;51.340;3.240;2023-03-24T00:12:48;5.13;;;3.53;;
13797;SDS011;6970;51.340;3.240;2023-03-24T00:15:17;4.57;;;2.87;;
13797;SDS011;6970;51.340;3.240;2023-03-24T00:17:47;4.07;;;2.40;;
13797;SDS011;6970;51.340;3.240;2023-03-24T00:20:16;4.80;;;2.30;;
13797;SDS011;6970;51.340;3.240;2023-03-24T00:22:46;3.33;;;2.63;;
13797;SDS011;6970;51.340;3.240;2023-03-24T00:25:16;6.43;;;3.20;;
13797;SDS011;6970;51.340;3.240;2023-03-24T00:27:45;2.87;;;2.53;;
13797;SDS011;6970;51.340;3.240;2023-03-24T00:30:14;6.70;;;1.90;;
13797;SDS011;6970;51.340;3.240;2023-03-24T00:32:43;4.27;;;1.27;;
13797;SDS011;6970;51.340;3.240;2023-03-24T00:35:13;2.63;;;1.13;;
13797;SDS011;6970;51.340;3.240;2023-03-24T00:37:42;2.30;;;0.90;;
13797;SDS011;6970;51.340;3.240;2023-03-24T00:40:13;3.53;;;1.30;;
13797;SDS011;6970;51.340;3.240;2023-03-24T00:42:42;6.27;;;1.37;;
13797;SDS011;6970;51.340;3.240;2023-03-24T00:45:12;3.83;;;0.93;;
13797;SDS011;6970;51.340;3.240;2023-03-24T00:47:43;1.37;;;0.93;;
13797;SDS011;6970;51.340;3.240;2023-03-24T00:50:12;3.27;;;1.10;;
13797;SDS011;6970;51.340;3.240;2023-03-24T00:52:42;4.70;;;1.10;;
13797;SDS011;6970;51.340;3.240;2023-03-24T00:55:13;5.07;;;1.60;;
13797;SDS011;6970;51.340;3.240;2023-03-24T00:57:44;4.60;;;1.57;;
13797;SDS011;6970;51.340;3.240;2023-03-24T01:00:17;4.57;;;1.70;;
13797;SDS011;6970;51.340;3.240;2023-03-24T01:02:47;3.27;;;1.83;;
13797;SDS011;6970;51.340;3.240;2023-03-24T01:05:26;4.93;;;1.97;;
13797;SDS011;6970;51.340;3.240;2023-03-24T01:07:59;5.43;;;1.00;;
13797;SDS011;6970;51.340;3.240;2023-03-24T01:10:30;5.97;;;1.40;;
13797;SDS011;6970;51.340;3.240;2023-03-24T01:12:59;3.37;;;1.23;;
13797;SDS011;6970;51.340;3.240;2023-03-24T01:15:29;3.60;;;1.17;;
13797;SDS011;6970;51.340;3.240;2023-03-24T01:17:58;5.90;;;1.30;;
13797;SDS011;6970;51.340;3.240;2023-03-24T01:20:28;4.93;;;1.17;;
13797;SDS011;6970;51.340;3.240;2023-03-24T01:22:59;5.50;;;1.30;;
13797;SDS011;6970;51.340;3.240;2023-03-24T01:25:27;4.67;;;1.00;;
13797;SDS011;6970;51.340;3.240;2023-03-24T01:27:55;6.40;;;1.40;;
13797;SDS011;6970;51.340;3.240;2023-03-24T01:30:24;5.30;;;1.53;;
13797;SDS011;6970;51.340;3.240;2023-03-24T01:32:52;4.77;;;1.37;;
13797;SDS011;6970;51.340;3.240;2023-03-24T01:35:19;8.00;;;1.60;;
13797;SDS011;6970;51.340;3.240;2023-03-24T01:37:48;8.47;;;2.30;;
13797;SDS011;6970;51.340;3.240;2023-03-24T01:40:16;8.77;;;3.13;;
13797;SDS011;6970;51.340;3.240;2023-03-24T01:42:49;9.73;;;2.23;;
13797;SDS011;6970;51.340;3.240;2023-03-24T01:51:03;9.27;;;2.27;;
13797;SDS011;6970;51.340;3.240;2023-03-24T01:53:40;9.83;;;2.33;;
13797;SDS011;6970;51.340;3.240;2023-03-24T01:56:12;11.80;;;2.60;;
13797;SDS011;6970;51.340;3.240;2023-03-24T01:58:40;10.27;;;2.40;;
13797;SDS011;6970;51.340;3.240;2023-03-24T02:01:12;12.53;;;2.63;;
13797;SDS011;6970;51.340;3.240;2023-03-24T02:03:41;11.97;;;2.67;;
13797;SDS011;6970;51.340;3.240;2023-03-24T02:06:10;12.27;;;2.13;;
13797;SDS011;6970;51.340;3.240;2023-03-24T02:08:47;11.40;;;2.50;;
13797;SDS011;6970;51.340;3.240;2023-03-24T02:11:19;13.00;;;2.87;;
13797;SDS011;6970;51.340;3.240;2023-03-24T02:13:47;11.93;;;2.73;;
13797;SDS011;6970;51.340;3.240;2023-03-24T02:19:11;14.53;;;3.40;;
13797;SDS011;6970;51.340;3.240;2023-03-24T02:36:24;16.60;;;3.03;;
13797;SDS011;6970;51.340;3.240;2023-03-24T02:39:35;14.07;;;3.87;;
13797;SDS011;6970;51.340;3.240;2023-03-24T02:48:18;12.77;;;3.03;;
13797;SDS011;6970;51.340;3.240;2023-03-24T02:50:28;12.97;;;3.00;;
13797;SDS011;6970;51.340;3.240;2023-03-24T02:53:05;16.33;;;3.33;;
13797;SDS011;6970;51.340;3.240;2023-03-24T02:55:44;14.57;;;3.10;;
13797;SDS011;6970;51.340;3.240;2023-03-24T02:58:37;18.30;;;3.50;;
13797;SDS011;6970;51.340;3.240;2023-03-24T03:04:14;14.20;;;4.20;;
13797;SDS011;6970;51.340;3.240;2023-03-24T03:06:44;17.67;;;3.20;;
13797;SDS011;6970;51.340;3.240;2023-03-24T03:09:18;15.97;;;2.73;;
13797;SDS011;6970;51.340;3.240;2023-03-24T03:11:48;13.27;;;2.90;;
13797;SDS011;6970;51.340;3.240;2023-03-24T03:14:31;18.97;;;4.40;;
13797;SDS011;6970;51.340;3.240;2023-03-24T03:17:01;15.33;;;3.80;;
13797;SDS011;6970;51.340;3.240;2023-03-24T03:19:39;18.80;;;2.97;;
13797;SDS011;6970;51.340;3.240;2023-03-24T03:22:14;16.67;;;3.03;;
13797;SDS011;6970;51.340;3.240;2023-03-24T03:24:45;14.97;;;3.80;;
13797;SDS011;6970;51.340;3.240;2023-03-24T03:27:39;18.13;;;3.47;;
13797;SDS011;6970;51.340;3.240;2023-03-24T03:30:16;14.47;;;2.80;;
13797;SDS011;6970;51.340;3.240;2023-03-24T03:32:50;9.80;;;2.53;;
13797;SDS011;6970;51.340;3.240;2023-03-24T03:35:23;14.83;;;3.20;;
13797;SDS011;6970;51.340;3.240;2023-03-24T03:43:17;17.30;;;2.97;;
13797;SDS011;6970;51.340;3.240;2023-03-24T03:45:45;20.37;;;3.17;;
13797;SDS011;6970;51.340;3.240;2023-03-24T03:48:12;15.60;;;3.13;;
13797;SDS011;6970;51.340;3.240;2023-03-24T03:50:43;15.60;;;3.50;;
13797;SDS011;6970;51.340;3.240;2023-03-24T03:53:11;9.40;;;2.67;;
13797;SDS011;6970;51.340;3.240;2023-03-24T03:55:40;13.30;;;3.23;;
13797;SDS011;6970;51.340;3.240;2023-03-24T03:58:08;9.43;;;2.37;;
13797;SDS011;6970;51.340;3.240;2023-03-24T04:00:35;13.30;;;2.90;;
13797;SDS011;6970;51.340;3.240;2023-03-24T04:08:51;10.70;;;2.87;;
13797;SDS011;6970;51.340;3.240;2023-03-24T04:17:21;8.50;;;2.40;;
13797;SDS011;6970;51.340;3.240;2023-03-24T04:20:08;9.43;;;2.77;;
13797;SDS011;6970;51.340;3.240;2023-03-24T04:34:09;14.43;;;2.83;;
13797;SDS011;6970;51.340;3.240;2023-03-24T04:39:28;13.17;;;3.03;;
13797;SDS011;6970;51.340;3.240;2023-03-24T04:42:00;12.00;;;2.40;;
13797;SDS011;6970;51.340;3.240;2023-03-24T04:44:30;9.50;;;2.67;;
13797;SDS011;6970;51.340;3.240;2023-03-24T04:46:59;14.73;;;3.07;;
13797;SDS011;6970;51.340;3.240;2023-03-24T04:49:28;12.27;;;3.03;;
13797;SDS011;6970;51.340;3.240;2023-03-24T04:51:55;12.30;;;2.77;;
13797;SDS011;6970;51.340;3.240;2023-03-24T04:54:22;11.03;;;3.17;;
13797;SDS011;6970;51.340;3.240;2023-03-24T04:56:53;14.10;;;2.80;;
13797;SDS011;6970;51.340;3.240;2023-03-24T04:59:21;12.60;;;2.50;;
13797;SDS011;6970;51.340;3.240;2023-03-24T05:01:48;11.83;;;2.83;;
13797;SDS011;6970;51.340;3.240;2023-03-24T05:04:20;13.37;;;2.87;;
13797;SDS011;6970;51.340;3.240;2023-03-24T05:06:51;17.47;;;2.93;;
13797;SDS011;6970;51.340;3.240;2023-03-24T05:09:19;12.90;;;2.87;;
13797;SDS011;6970;51.340;3.240;2023-03-24T05:11:48;10.87;;;2.60;;
13797;SDS011;6970;51.340;3.240;2023-03-24T05:14:16;12.20;;;2.77;;
13797;SDS011;6970;51.340;3.240;2023-03-24T05:16:43;8.53;;;2.70;;
13797;SDS011;6970;51.340;3.240;2023-03-24T05:19:10;12.53;;;2.80;;
13797;SDS011;6970;51.340;3.240;2023-03-24T05:21:37;20.20;;;3.00;;
13797;SDS011;6970;51.340;3.240;2023-03-24T05:24:04;15.23;;;3.30;;
13797;SDS011;6970;51.340;3.240;2023-03-24T05:26:32;14.00;;;3.00;;
13797;SDS011;6970;51.340;3.240;2023-03-24T05:29:00;10.13;;;2.77;;
13797;SDS011;6970;51.340;3.240;2023-03-24T05:31:27;11.77;;;2.73;;
13797;SDS011;6970;51.340;3.240;2023-03-24T05:33:54;12.87;;;3.57;;
13797;SDS011;6970;51.340;3.240;2023-03-24T05:36:21;12.07;;;2.50;;
13797;SDS011;6970;51.340;3.240;2023-03-24T05:38:49;13.73;;;3.33;;
13797;SDS011;6970;51.340;3.240;2023-03-24T05:41:15;14.53;;;2.80;;
13797;SDS011;6970;51.340;3.240;2023-03-24T05:43:42;14.10;;;2.93;;
13797;SDS011;6970;51.340;3.240;2023-03-24T05:46:09;12.23;;;3.00;;
13797;SDS011;6970;51.340;3.240;2023-03-24T05:48:37;14.70;;;3.20;;
13797;SDS011;6970;51.340;3.240;2023-03-24T05:51:04;11.83;;;2.63;;
13797;SDS011;6970;51.340;3.240;2023-03-24T05:53:31;10.77;;;2.27;;
13797;SDS011;6970;51.340;3.240;2023-03-24T05:55:58;12.63;;;2.70;;
13797;SDS011;6970;51.340;3.240;2023-03-24T05:58:25;9.37;;;2.73;;
13797;SDS011;6970;51.340;3.240;2023-03-24T06:00:52;10.73;;;2.73;;
13797;SDS011;6970;51.340;3.240;2023-03-24T06:03:19;11.80;;;2.40;;
13797;SDS011;6970;51.340;3.240;2023-03-24T06:05:47;13.30;;;2.63;;
13797;SDS011;6970;51.340;3.240;2023-03-24T06:08:16;14.40;;;2.60;;
13797;SDS011;6970;51.340;3.240;2023-03-24T06:10:43;12.60;;;3.10;;
13797;SDS011;6970;51.340;3.240;2023-03-24T06:13:11;11.90;;;3.40;;
13797;SDS011;6970;51.340;3.240;2023-03-24T06:15:38;13.83;;;3.40;;
13797;SDS011;6970;51.340;3.240;2023-03-24T06:18:08;16.20;;;3.33;;
13797;SDS011;6970;51.340;3.240;2023-03-24T06:20:35;13.47;;;3.07;;
13797;SDS011;6970;51.340;3.240;2023-03-24T06:23:02;10.53;;;2.63;;
13797;SDS011;6970;51.340;3.240;2023-03-24T06:25:29;10.93;;;2.33;;
13797;SDS011;6970;51.340;3.240;2023-03-24T06:27:56;10.63;;;2.67;;
13797;SDS011;6970;51.340;3.240;2023-03-24T06:30:29;12.97;;;2.77;;
13797;SDS011;6970;51.340;3.240;2023-03-24T06:32:56;8.33;;;2.40;;
13797;SDS011;6970;51.340;3.240;2023-03-24T06:35:23;13.07;;;2.30;;
13797;SDS011;6970;51.340;3.240;2023-03-24T06:37:51;14.73;;;2.60;;
13797;SDS011;6970;51.340;3.240;2023-03-24T06:40:18;12.33;;;2.37;;
13797;SDS011;6970;51.340;3.240;2023-03-24T06:42:45;8.57;;;2.03;;
13797;SDS011;6970;51.340;3.240;2023-03-24T06:45:12;13.03;;;3.13;;
13797;SDS011;6970;51.340;3.240;2023-03-24T06:47:39;14.40;;;2.83;;
13797;SDS011;6970;51.340;3.240;2023-03-24T06:50:06;13.67;;;2.97;;
13797;SDS011;6970;51.340;3.240;2023-03-24T06:52:34;14.70;;;3.53;;
13797;SDS011;6970;51.340;3.240;2023-03-24T06:55:02;14.70;;;3.07;;
13797;SDS011;6970;51.340;3.240;2023-03-24T06:57:30;12.10;;;3.00;;
13797;SDS011;6970;51.340;3.240;2023-03-24T06:59:57;10.57;;;2.57;;
13797;SDS011;6970;51.340;3.240;2023-03-24T07:02:24;11.57;;;2.57;;
13797;SDS011;6970;51.340;3.240;2023-03-24T07:04:53;11.67;;;3.43;;
13797;SDS011;6970;51.340;3.240;2023-03-24T07:07:20;15.43;;;3.77;;
13797;SDS011;6970;51.340;3.240;2023-03-24T07:10:07;14.40;;;2.50;;
13797;SDS011;6970;51.340;3.240;2023-03-24T07:12:35;15.37;;;2.93;;
13797;SDS011;6970;51.340;3.240;2023-03-24T07:15:03;14.70;;;2.80;;
13797;SDS011;6970;51.340;3.240;2023-03-24T07:17:32;10.67;;;2.50;;
13797;SDS011;6970;51.340;3.240;2023-03-24T07:20:00;10.70;;;2.80;;
13797;SDS011;6970;51.340;3.240;2023-03-24T07:22:27;14.63;;;3.07;;
13797;SDS011;6970;51.340;3.240;2023-03-24T07:24:54;7.07;;;2.30;;
13797;SDS011;6970;51.340;3.240;2023-03-24T07:27:23;14.93;;;3.10;;
13797;SDS011;6970;51.340;3.240;2023-03-24T07:29:50;9.97;;;2.60;;
13797;SDS011;6970;51.340;3.240;2023-03-24T07:32:17;13.67;;;3.63;;
13797;SDS011;6970;51.340;3.240;2023-03-24T07:34:44;10.93;;;3.53;;
13797;SDS011;6970;51.340;3.240;2023-03-24T07:37:12;14.63;;;3.03;;
13797;SDS011;6970;51.340;3.240;2023-03-24T07:39:39;11.90;;;2.40;;
13797;SDS011;6970;51.340;3.240;2023-03-24T07:42:06;11.03;;;2.50;;
13797;SDS011;6970;51.340;3.240;2023-03-24T07:44:36;12.27;;;2.87;;
13797;SDS011;6970;51.340;3.240;2023-03-24T07:47:03;11.80;;;3.10;;
13797;SDS011;6970;51.340;3.240;2023-03-24T07:49:30;11.70;;;2.90;;
13797;SDS011;6970;51.340;3.240;2023-03-24T07:51:57;7.93;;;2.33;;
13797;SDS011;6970;51.340;3.240;2023-03-24T07:54:24;10.17;;;2.53;;
13797;SDS011;6970;51.340;3.240;2023-03-24T07:56:52;10.00;;;2.80;;
13797;SDS011;6970;51.340;3.240;2023-03-24T07:59:19;7.93;;;2.67;;
13797;SDS011;6970;51.340;3.240;2023-03-24T08:01:46;10.83;;;2.53;;
13797;SDS011;6970;51.340;3.240;2023-03-24T08:04:20;8.07;;;2.67;;
13797;SDS011;6970;51.340;3.240;2023-03-24T08:06:48;10.13;;;2.47;;
13797;SDS011;6970;51.340;3.240;2023-03-24T08:09:16;8.77;;;2.23;;
13797;SDS011;6970;51.340;3.240;2023-03-24T08:11:43;10.07;;;2.60;;
13797;SDS011;6970;51.340;3.240;2023-03-24T08:14:10;9.50;;;2.73;;
13797;SDS011;6970;51.340;3.240;2023-03-24T08:16:38;8.83;;;2.63;;
13797;SDS011;6970;51.340;3.240;2023-03-24T08:19:05;10.60;;;2.27;;
13797;SDS011;6970;51.340;3.240;2023-03-24T08:21:32;7.37;;;2.80;;
13797;SDS011;6970;51.340;3.240;2023-03-24T08:23:59;10.57;;;2.70;;
13797;SDS011;6970;51.340;3.240;2023-03-24T08:26:26;10.40;;;2.67;;
13797;SDS011;6970;51.340;3.240;2023-03-24T08:28:54;11.20;;;3.03;;
13797;SDS011;6970;51.340;3.240;2023-03-24T08:31:22;17.17;;;3.30;;
13797;SDS011;6970;51.340;3.240;2023-03-24T08:33:49;9.27;;;2.53;;
13797;SDS011;6970;51.340;3.240;2023-03-24T08:36:16;15.10;;;3.33;;
13797;SDS011;6970;51.340;3.240;2023-03-24T08:38:43;16.07;;;3.10;;
13797;SDS011;6970;51.340;3.240;2023-03-24T08:41:10;15.80;;;2.90;;
13797;SDS011;6970;51.340;3.240;2023-03-24T08:43:37;8.57;;;2.43;;
13797;SDS011;6970;51.340;3.240;2023-03-24T08:46:05;12.03;;;2.80;;
13797;SDS011;6970;51.340;3.240;2023-03-24T08:48:34;12.20;;;2.70;;
13797;SDS011;6970;51.340;3.240;2023-03-24T08:51:13;10.40;;;2.73;;
13797;SDS011;6970;51.340;3.240;2023-03-24T08:53:41;11.83;;;3.30;;
13797;SDS011;6970;51.340;3.240;2023-03-24T08:56:09;16.03;;;3.33;;
13797;SDS011;6970;51.340;3.240;2023-03-24T08:58:36;11.73;;;2.60;;
13797;SDS011;6970;51.340;3.240;2023-03-24T09:01:03;9.33;;;2.70;;
13797;SDS011;6970;51.340;3.240;2023-03-24T09:03:30;8.70;;;2.20;;
13797;SDS011;6970;51.340;3.240;2023-03-24T09:05:57;8.77;;;2.20;;
13797;SDS011;6970;51.340;3.240;2023-03-24T09:08:25;5.80;;;1.97;;
13797;SDS011;6970;51.340;3.240;2023-03-24T09:10:52;9.40;;;2.53;;
13797;SDS011;6970;51.340;3.240;2023-03-24T09:13:19;8.07;;;1.87;;
13797;SDS011;6970;51.340;3.240;2023-03-24T09:15:48;10.93;;;2.80;;
13797;SDS011;6970;51.340;3.240;2023-03-24T09:18:20;30.57;;;3.30;;
13797;SDS011;6970;51.340;3.240;2023-03-24T09:20:47;8.03;;;2.30;;
13797;SDS011;6970;51.340;3.240;2023-03-24T09:23:15;8.13;;;1.80;;
13797;SDS011;6970;51.340;3.240;2023-03-24T09:25:43;8.47;;;1.80;;
13797;SDS011;6970;51.340;3.240;2023-03-24T09:28:10;7.77;;;2.40;;
13797;SDS011;6970;51.340;3.240;2023-03-24T09:30:39;7.07;;;2.17;;
13797;SDS011;6970;51.340;3.240;2023-03-24T09:33:07;9.47;;;2.03;;
13797;SDS011;6970;51.340;3.240;2023-03-24T09:35:34;6.73;;;1.67;;
13797;SDS011;6970;51.340;3.240;2023-03-24T09:38:01;5.07;;;1.73;;
13797;SDS011;6970;51.340;3.240;2023-03-24T09:40:30;8.23;;;2.20;;
13797;SDS011;6970;51.340;3.240;2023-03-24T09:43:00;8.83;;;2.10;;
13797;SDS011;6970;51.340;3.240;2023-03-24T09:45:33;10.23;;;2.20;;
13797;SDS011;6970;51.340;3.240;2023-03-24T09:48:06;9.10;;;2.13;;
13797;SDS011;6970;51.340;3.240;2023-03-24T09:50:48;6.63;;;2.17;;
13797;SDS011;6970;51.340;3.240;2023-03-24T09:55:52;6.17;;;1.50;;
13797;SDS011;6970;51.340;3.240;2023-03-24T09:58:19;6.63;;;1.50;;
13797;SDS011;6970;51.340;3.240;2023-03-24T10:00:47;5.63;;;1.20;;
13797;SDS011;6970;51.340;3.240;2023-03-24T10:03:19;6.43;;;1.40;;
13797;SDS011;6970;51.340;3.240;2023-03-24T10:06:22;3.60;;;1.40;;
13797;SDS011;6970;51.340;3.240;2023-03-24T10:08:49;4.57;;;1.30;;
13797;SDS011;6970;51.340;3.240;2023-03-24T10:11:56;4.63;;;1.50;;
13797;SDS011;6970;51.340;3.240;2023-03-24T10:26:20;14.60;;;1.90;;
13797;SDS011;6970;51.340;3.240;2023-03-24T10:28:22;4.57;;;1.70;;
13797;SDS011;6970;51.340;3.240;2023-03-24T10:30:55;8.17;;;2.13;;
13797;SDS011;6970;51.340;3.240;2023-03-24T10:33:25;7.10;;;2.10;;
13797;SDS011;6970;51.340;3.240;2023-03-24T10:38:35;10.20;;;2.73;;
13797;SDS011;6970;51.340;3.240;2023-03-24T10:41:02;51.63;;;9.80;;
13797;SDS011;6970;51.340;3.240;2023-03-24T10:43:30;26.20;;;5.20;;
13797;SDS011;6970;51.340;3.240;2023-03-24T10:45:57;12.97;;;3.23;;
13797;SDS011;6970;51.340;3.240;2023-03-24T10:51:18;7.97;;;2.20;;
13797;SDS011;6970;51.340;3.240;2023-03-24T10:54:10;8.03;;;1.90;;
13797;SDS011;6970;51.340;3.240;2023-03-24T10:56:41;11.03;;;2.10;;
13797;SDS011;6970;51.340;3.240;2023-03-24T11:04:39;8.50;;;1.70;;
13797;SDS011;6970;51.340;3.240;2023-03-24T11:07:16;11.50;;;2.80;;
13797;SDS011;6970;51.340;3.240;2023-03-24T11:09:55;11.40;;;2.57;;
13797;SDS011;6970;51.340;3.240;2023-03-24T11:12:24;8.43;;;2.90;;
13797;SDS011;6970;51.340;3.240;2023-03-24T11:15:12;9.60;;;3.60;;
13797;SDS011;6970;51.340;3.240;2023-03-24T11:17:54;11.27;;;2.50;;
13797;SDS011;6970;51.340;3.240;2023-03-24T11:25:45;7.13;;;1.70;;
13797;SDS011;6970;51.340;3.240;2023-03-24T11:28:20;8.67;;;2.17;;
13797;SDS011;6970;51.340;3.240;2023-03-24T11:30:52;13.23;;;2.67;;
13797;SDS011;6970;51.340;3.240;2023-03-24T11:33:30;7.90;;;2.23;;
13797;SDS011;6970;51.340;3.240;2023-03-24T11:41:29;10.47;;;3.43;;
13797;SDS011;6970;51.340;3.240;2023-03-24T11:44:18;6.87;;;2.00;;
13797;SDS011;6970;51.340;3.240;2023-03-24T11:49:43;6.03;;;1.80;;
13797;SDS011;6970;51.340;3.240;2023-03-24T11:52:37;10.90;;;2.97;;
13797;SDS011;6970;51.340;3.240;2023-03-24T11:55:20;11.57;;;2.40;;
13797;SDS011;6970;51.340;3.240;2023-03-24T12:00:32;10.60;;;2.47;;
13797;SDS011;6970;51.340;3.240;2023-03-24T12:05:41;11.40;;;2.63;;
13797;SDS011;6970;51.340;3.240;2023-03-24T12:08:19;9.00;;;2.67;;
13797;SDS011;6970;51.340;3.240;2023-03-24T12:14:04;5.87;;;1.80;;
13797;SDS011;6970;51.340;3.240;2023-03-24T12:19:25;4.30;;;1.90;;
13797;SDS011;6970;51.340;3.240;2023-03-24T12:22:18;14.00;;;1.70;;
13797;SDS011;6970;51.340;3.240;2023-03-24T12:27:52;8.97;;;2.07;;
13797;SDS011;6970;51.340;3.240;2023-03-24T12:33:16;9.60;;;2.30;;
13797;SDS011;6970;51.340;3.240;2023-03-24T12:36:16;11.50;;;2.90;;
13797;SDS011;6970;51.340;3.240;2023-03-24T12:42:10;12.67;;;2.60;;
13797;SDS011;6970;51.340;3.240;2023-03-24T12:47:18;13.03;;;2.60;;
13797;SDS011;6970;51.340;3.240;2023-03-24T13:04:36;10.10;;;2.07;;
13797;SDS011;6970;51.340;3.240;2023-03-24T13:09:50;12.97;;;2.50;;
13797;SDS011;6970;51.340;3.240;2023-03-24T13:20:06;9.37;;;2.20;;
13797;SDS011;6970;51.340;3.240;2023-03-24T13:22:39;6.77;;;1.70;;
13797;SDS011;6970;51.340;3.240;2023-03-24T13:25:09;10.20;;;2.20;;
13797;SDS011;6970;51.340;3.240;2023-03-24T13:27:58;8.47;;;2.03;;
13797;SDS011;6970;51.340;3.240;2023-03-24T13:30:33;15.07;;;3.23;;
13797;SDS011;6970;51.340;3.240;2023-03-24T13:33:10;10.57;;;2.47;;
13797;SDS011;6970;51.340;3.240;2023-03-24T13:38:21;14.63;;;2.67;;
13797;SDS011;6970;51.340;3.240;2023-03-24T13:41:06;11.67;;;3.40;;
13797;SDS011;6970;51.340;3.240;2023-03-24T13:43:37;10.30;;;2.57;;
13797;SDS011;6970;51.340;3.240;2023-03-24T13:46:34;14.60;;;2.53;;
13797;SDS011;6970;51.340;3.240;2023-03-24T13:49:04;10.43;;;2.57;;
13797;SDS011;6970;51.340;3.240;2023-03-24T13:51:36;8.70;;;2.30;;
13797;SDS011;6970;51.340;3.240;2023-03-24T13:57:02;6.97;;;2.10;;
13797;SDS011;6970;51.340;3.240;2023-03-24T14:12:50;5.47;;;1.80;;
13797;SDS011;6970;51.340;3.240;2023-03-24T14:15:19;7.40;;;2.43;;
13797;SDS011;6970;51.340;3.240;2023-03-24T14:17:48;13.33;;;2.30;;
13797;SDS011;6970;51.340;3.240;2023-03-24T14:20:33;6.60;;;1.90;;
13797;SDS011;6970;51.340;3.240;2023-03-24T14:23:01;9.97;;;2.00;;
13797;SDS011;6970;51.340;3.240;2023-03-24T14:25:30;10.53;;;2.20;;
13797;SDS011;6970;51.340;3.240;2023-03-24T14:28:19;7.57;;;2.17;;
13797;SDS011;6970;51.340;3.240;2023-03-24T14:31:02;8.77;;;2.30;;
13797;SDS011;6970;51.340;3.240;2023-03-24T14:36:24;12.00;;;2.60;;
13797;SDS011;6970;51.340;3.240;2023-03-24T14:42:02;7.97;;;2.00;;
13797;SDS011;6970;51.340;3.240;2023-03-24T14:45:03;8.23;;;1.97;;
13797;SDS011;6970;51.340;3.240;2023-03-24T14:47:59;7.37;;;1.83;;
13797;SDS011;6970;51.340;3.240;2023-03-24T14:50:27;11.53;;;2.40;;
13797;SDS011;6970;51.340;3.240;2023-03-24T14:52:58;11.40;;;2.27;;
13797;SDS011;6970;51.340;3.240;2023-03-24T14:55:29;8.13;;;2.20;;
13797;SDS011;6970;51.340;3.240;2023-03-24T14:57:58;7.80;;;1.97;;
13797;SDS011;6970;51.340;3.240;2023-03-24T15:00:39;12.63;;;2.03;;
13797;SDS011;6970;51.340;3.240;2023-03-24T15:03:33;9.67;;;2.07;;
13797;SDS011;6970;51.340;3.240;2023-03-24T15:06:21;8.60;;;2.00;;
13797;SDS011;6970;51.340;3.240;2023-03-24T15:08:50;12.70;;;2.00;;
13797;SDS011;6970;51.340;3.240;2023-03-24T15:11:19;10.53;;;2.53;;
13797;SDS011;6970;51.340;3.240;2023-03-24T15:13:51;7.40;;;2.27;;
13797;SDS011;6970;51.340;3.240;2023-03-24T15:21:37;8.57;;;1.60;;
13797;SDS011;6970;51.340;3.240;2023-03-24T15:26:47;5.43;;;1.43;;
13797;SDS011;6970;51.340;3.240;2023-03-24T15:29:18;4.97;;;1.23;;
13797;SDS011;6970;51.340;3.240;2023-03-24T15:31:45;3.60;;;1.33;;
13797;SDS011;6970;51.340;3.240;2023-03-24T15:37:05;8.97;;;2.17;;
13797;SDS011;6970;51.340;3.240;2023-03-24T15:39:50;3.80;;;1.47;;
13797;SDS011;6970;51.340;3.240;2023-03-24T15:42:30;6.03;;;1.47;;
13797;SDS011;6970;51.340;3.240;2023-03-24T15:45:48;4.97;;;1.23;;
13797;SDS011;6970;51.340;3.240;2023-03-24T15:48:30;6.47;;;1.30;;
13797;SDS011;6970;51.340;3.240;2023-03-24T15:51:02;8.87;;;1.50;;
13797;SDS011;6970;51.340;3.240;2023-03-24T15:53:39;8.77;;;1.70;;
13797;SDS011;6970;51.340;3.240;2023-03-24T15:56:24;4.60;;;1.70;;
13797;SDS011;6970;51.340;3.240;2023-03-24T16:01:29;7.80;;;1.93;;
13797;SDS011;6970;51.340;3.240;2023-03-24T16:04:03;5.03;;;1.50;;
13797;SDS011;6970;51.340;3.240;2023-03-24T16:06:33;5.77;;;1.97;;
13797;SDS011;6970;51.340;3.240;2023-03-24T16:09:11;6.60;;;1.27;;
13797;SDS011;6970;51.340;3.240;2023-03-24T16:11:40;8.77;;;1.90;;
13797;SDS011;6970;51.340;3.240;2023-03-24T16:14:24;6.20;;;2.23;;
13797;SDS011;6970;51.340;3.240;2023-03-24T16:16:59;5.63;;;2.23;;
13797;SDS011;6970;51.340;3.240;2023-03-24T16:19:29;6.90;;;1.73;;
13797;SDS011;6970;51.340;3.240;2023-03-24T16:21:56;5.90;;;1.10;;
13797;SDS011;6970;51.340;3.240;2023-03-24T16:24:23;8.43;;;1.90;;
13797;SDS011;6970;51.340;3.240;2023-03-24T16:26:50;5.17;;;1.37;;
13797;SDS011;6970;51.340;3.240;2023-03-24T16:31:46;5.97;;;1.67;;
13797;SDS011;6970;51.340;3.240;2023-03-24T16:34:15;8.00;;;1.90;;
13797;SDS011;6970;51.340;3.240;2023-03-24T16:36:47;8.73;;;2.20;;
13797;SDS011;6970;51.340;3.240;2023-03-24T16:39:16;4.73;;;2.33;;
13797;SDS011;6970;51.340;3.240;2023-03-24T16:41:45;7.70;;;2.20;;
13797;SDS011;6970;51.340;3.240;2023-03-24T16:44:12;7.63;;;2.67;;
13797;SDS011;6970;51.340;3.240;2023-03-24T16:46:40;10.77;;;2.40;;
13797;SDS011;6970;51.340;3.240;2023-03-24T16:49:12;5.93;;;1.57;;
13797;SDS011;6970;51.340;3.240;2023-03-24T16:51:41;9.73;;;3.40;;
13797;SDS011;6970;51.340;3.240;2023-03-24T16:54:08;11.00;;;2.90;;
13797;SDS011;6970;51.340;3.240;2023-03-24T16:56:36;15.30;;;3.30;;
13797;SDS011;6970;51.340;3.240;2023-03-24T16:59:04;8.97;;;2.20;;
13797;SDS011;6970;51.340;3.240;2023-03-24T17:01:33;10.20;;;2.97;;
13797;SDS011;6970;51.340;3.240;2023-03-24T17:04:11;10.13;;;2.57;;
13797;SDS011;6970;51.340;3.240;2023-03-24T17:06:43;13.30;;;3.40;;
13797;SDS011;6970;51.340;3.240;2023-03-24T17:09:14;6.83;;;3.13;;
13797;SDS011;6970;51.340;3.240;2023-03-24T17:11:43;8.07;;;2.20;;
13797;SDS011;6970;51.340;3.240;2023-03-24T17:14:13;8.30;;;2.00;;
13797;SDS011;6970;51.340;3.240;2023-03-24T17:16:44;6.43;;;1.50;;
13797;SDS011;6970;51.340;3.240;2023-03-24T17:19:14;4.60;;;1.60;;
13797;SDS011;6970;51.340;3.240;2023-03-24T17:24:24;3.83;;;1.40;;
13797;SDS011;6970;51.340;3.240;2023-03-24T17:26:52;8.43;;;1.47;;
13797;SDS011;6970;51.340;3.240;2023-03-24T17:29:19;7.90;;;1.40;;
13797;SDS011;6970;51.340;3.240;2023-03-24T17:31:48;7.20;;;1.20;;
13797;SDS011;6970;51.340;3.240;2023-03-24T17:34:15;4.97;;;1.33;;
13797;SDS011;6970;51.340;3.240;2023-03-24T17:36:47;5.73;;;1.60;;
13797;SDS011;6970;51.340;3.240;2023-03-24T17:39:17;8.37;;;2.17;;
13797;SDS011;6970;51.340;3.240;2023-03-24T17:41:45;4.93;;;1.50;;
13797;SDS011;6970;51.340;3.240;2023-03-24T17:44:12;6.73;;;1.47;;
13797;SDS011;6970;51.340;3.240;2023-03-24T17:46:39;6.80;;;2.70;;
13797;SDS011;6970;51.340;3.240;2023-03-24T17:49:06;5.37;;;1.30;;
13797;SDS011;6970;51.340;3.240;2023-03-24T17:51:33;8.60;;;1.87;;
13797;SDS011;6970;51.340;3.240;2023-03-24T17:54:00;7.97;;;1.87;;
13797;SDS011;6970;51.340;3.240;2023-03-24T17:56:27;8.43;;;2.10;;
13797;SDS011;6970;51.340;3.240;2023-03-24T17:58:55;7.43;;;1.87;;
13797;SDS011;6970;51.340;3.240;2023-03-24T18:01:24;6.70;;;1.60;;
13797;SDS011;6970;51.340;3.240;2023-03-24T18:03:56;7.13;;;1.80;;
13797;SDS011;6970;51.340;3.240;2023-03-24T18:06:23;5.63;;;1.53;;
13797;SDS011;6970;51.340;3.240;2023-03-24T18:08:50;8.97;;;1.90;;
13797;SDS011;6970;51.340;3.240;2023-03-24T18:11:18;5.93;;;1.80;;
13797;SDS011;6970;51.340;3.240;2023-03-24T18:13:45;6.47;;;1.83;;
13797;SDS011;6970;51.340;3.240;2023-03-24T18:16:12;7.20;;;1.87;;
13797;SDS011;6970;51.340;3.240;2023-03-24T18:18:47;8.07;;;1.80;;
13797;SDS011;6970;51.340;3.240;2023-03-24T18:21:15;7.50;;;2.20;;
13797;SDS011;6970;51.340;3.240;2023-03-24T18:23:42;9.10;;;2.20;;
13797;SDS011;6970;51.340;3.240;2023-03-24T18:26:11;4.70;;;1.70;;
13797;SDS011;6970;51.340;3.240;2023-03-24T18:28:39;7.40;;;2.07;;
13797;SDS011;6970;51.340;3.240;2023-03-24T18:31:08;7.23;;;1.90;;
13797;SDS011;6970;51.340;3.240;2023-03-24T18:33:35;9.10;;;2.00;;